sensor_id;sensor_type;location;lat;lon;timestamp;pressure;altitude;pressure_sealevel;temperature;humidity
47726;BME280;33483;48.294;16.388;2022-10-22T00:00:43;99590.66;;;9.49;100.00
47726;BME280;33483;48.294;16.388;2022-10-22T00:03:30;99606.22;;;9.52;100.00
47726;BME280;33483;48.294;16.388;2022-10-22T00:05:57;99608.25;;;9.51;100.00
47726;BME280;33483;48.294;16.388;2022-10-22T00:08:25;99608.47;;;9.53;100.00
47726;BME280;33483;48.294;16.388;2022-10-22T00:10:54;99600.31;;;9.61;100.00
47726;BME280;33483;48.294;16.388;2022-10-22T00:13:23;99594.06;;;9.60;100.00
47726;BME280;33483;48.294;16.388;2022-10-22T00:15:50;99600.63;;;9.57;100.00
47726;BME280;33483;48.294;16.388;2022-10-22T00:18:18;99598.59;;;9.58;100.00
47726;BME280;33483;48.294;16.388;2022-10-22T00:20:45;99590.06;;;9.56;100.00
47726;BME280;33483;48.294;16.388;2022-10-22T00:23:12;99578.28;;;9.55;100.00
47726;BME280;33483;48.294;16.388;2022-10-22T00:25:40;99591.34;;;9.55;100.00
47726;BME280;33483;48.294;16.388;2022-10-22T00:28:07;99586.88;;;9.52;100.00
47726;BME280;33483;48.294;16.388;2022-10-22T00:30:35;99590.13;;;9.50;100.00
47726;BME280;33483;48.294;16.388;2022-10-22T00:33:02;99582.13;;;9.47;100.00
47726;BME280;33483;48.294;16.388;2022-10-22T00:35:29;99576.38;;;9.45;100.00
47726;BME280;33483;48.294;16.388;2022-10-22T00:37:56;99571.50;;;9.51;100.00
47726;BME280;33483;48.294;16.388;2022-10-22T00:40:24;99561.72;;;9.50;100.00
47726;BME280;33483;48.294;16.388;2022-10-22T00:42:51;99570.84;;;9.45;100.00
47726;BME280;33483;48.294;16.388;2022-10-22T00:45:21;99575.63;;;9.44;100.00
47726;BME280;33483;48.294;16.388;2022-10-22T00:48:14;99557.78;;;9.40;100.00
47726;BME280;33483;48.294;16.388;2022-10-22T00:50:53;99556.53;;;9.41;100.00
47726;BME280;33483;48.294;16.388;2022-10-22T00:53:29;99548.75;;;9.39;100.00
47726;BME280;33483;48.294;16.388;2022-10-22T00:56:01;99546.34;;;9.30;100.00
47726;BME280;33483;48.294;16.388;2022-10-22T00:58:32;99546.91;;;9.23;100.00
47726;BME280;33483;48.294;16.388;2022-10-22T01:01:01;99548.81;;;9.09;100.00
47726;BME280;33483;48.294;16.388;2022-10-22T01:03:30;99542.63;;;8.98;100.00
47726;BME280;33483;48.294;16.388;2022-10-22T01:06:00;99538.47;;;8.86;100.00
47726;BME280;33483;48.294;16.388;2022-10-22T01:08:44;99555.38;;;8.77;100.00
47726;BME280;33483;48.294;16.388;2022-10-22T01:19:01;99564.13;;;8.46;100.00
47726;BME280;33483;48.294;16.388;2022-10-22T01:21:40;99557.16;;;8.39;100.00
47726;BME280;33483;48.294;16.388;2022-10-22T01:29:50;99536.41;;;8.27;100.00
47726;BME280;33483;48.294;16.388;2022-10-22T01:32:24;99528.88;;;8.22;100.00
47726;BME280;33483;48.294;16.388;2022-10-22T01:34:57;99525.88;;;8.20;100.00
47726;BME280;33483;48.294;16.388;2022-10-22T01:37:28;99527.59;;;8.23;100.00
47726;BME280;33483;48.294;16.388;2022-10-22T01:40:00;99529.13;;;8.30;100.00
47726;BME280;33483;48.294;16.388;2022-10-22T01:42:28;99528.38;;;8.29;100.00
47726;BME280;33483;48.294;16.388;2022-10-22T01:44:55;99525.34;;;8.27;100.00
47726;BME280;33483;48.294;16.388;2022-10-22T01:47:38;99518.84;;;8.25;100.00
47726;BME280;33483;48.294;16.388;2022-10-22T01:53:17;99495.81;;;8.11;100.00
47726;BME280;33483;48.294;16.388;2022-10-22T02:01:18;99494.94;;;7.92;100.00
47726;BME280;33483;48.294;16.388;2022-10-22T02:04:00;99499.22;;;7.87;100.00
47726;BME280;33483;48.294;16.388;2022-10-22T02:06:32;99495.75;;;7.81;100.00
47726;BME280;33483;48.294;16.388;2022-10-22T02:09:01;99490.75;;;7.74;100.00
47726;BME280;33483;48.294;16.388;2022-10-22T02:11:29;99487.75;;;7.72;100.00
47726;BME280;33483;48.294;16.388;2022-10-22T02:13:58;99487.72;;;7.78;100.00
47726;BME280;33483;48.294;16.388;2022-10-22T02:16:31;99490.72;;;7.80;100.00
47726;BME280;33483;48.294;16.388;2022-10-22T02:19:02;99494.25;;;7.80;100.00
47726;BME280;33483;48.294;16.388;2022-10-22T02:21:31;99488.50;;;7.73;100.00
47726;BME280;33483;48.294;16.388;2022-10-22T02:24:01;99492.81;;;7.63;100.00
47726;BME280;33483;48.294;16.388;2022-10-22T02:26:34;99508.91;;;7.53;100.00
47726;BME280;33483;48.294;16.388;2022-10-22T02:29:14;99501.66;;;7.45;100.00
47726;BME280;33483;48.294;16.388;2022-10-22T02:31:45;99487.91;;;7.39;100.00
47726;BME280;33483;48.294;16.388;2022-10-22T02:34:20;99496.22;;;7.34;100.00
47726;BME280;33483;48.294;16.388;2022-10-22T02:36:51;99494.19;;;7.29;100.00
47726;BME280;33483;48.294;16.388;2022-10-22T02:39:19;99478.69;;;7.26;100.00
47726;BME280;33483;48.294;16.388;2022-10-22T02:41:47;99470.66;;;7.22;100.00
47726;BME280;33483;48.294;16.388;2022-10-22T02:44:14;99469.69;;;7.20;100.00
47726;BME280;33483;48.294;16.388;2022-10-22T02:46:42;99480.72;;;7.20;100.00
47726;BME280;33483;48.294;16.388;2022-10-22T02:49:09;99479.97;;;7.19;100.00
47726;BME280;33483;48.294;16.388;2022-10-22T02:51:36;99476.69;;;7.21;100.00
47726;BME280;33483;48.294;16.388;2022-10-22T02:54:03;99474.94;;;7.23;100.00
47726;BME280;33483;48.294;16.388;2022-10-22T02:56:31;99466.16;;;7.25;100.00
47726;BME280;33483;48.294;16.388;2022-10-22T02:58:58;99476.97;;;7.17;100.00
47726;BME280;33483;48.294;16.388;2022-10-22T03:01:25;99475.47;;;7.11;100.00
47726;BME280;33483;48.294;16.388;2022-10-22T03:03:52;99484.50;;;7.06;100.00
47726;BME280;33483;48.294;16.388;2022-10-22T03:06:19;99487.78;;;7.04;100.00
47726;BME280;33483;48.294;16.388;2022-10-22T03:08:46;99481.00;;;7.00;100.00
47726;BME280;33483;48.294;16.388;2022-10-22T03:11:14;99481.78;;;6.95;100.00
47726;BME280;33483;48.294;16.388;2022-10-22T03:13:41;99470.00;;;6.94;100.00
47726;BME280;33483;48.294;16.388;2022-10-22T03:16:08;99480.28;;;6.94;100.00
47726;BME280;33483;48.294;16.388;2022-10-22T03:18:35;99476.00;;;6.87;100.00
47726;BME280;33483;48.294;16.388;2022-10-22T03:21:11;99477.03;;;6.84;100.00
47726;BME280;33483;48.294;16.388;2022-10-22T03:23:41;99478.03;;;6.81;100.00
47726;BME280;33483;48.294;16.388;2022-10-22T03:26:11;99476.28;;;6.83;100.00
47726;BME280;33483;48.294;16.388;2022-10-22T03:28:39;99472.03;;;6.82;100.00
47726;BME280;33483;48.294;16.388;2022-10-22T03:31:08;99461.50;;;6.87;100.00
47726;BME280;33483;48.294;16.388;2022-10-22T03:33:34;99459.50;;;6.87;100.00
47726;BME280;33483;48.294;16.388;2022-10-22T03:36:02;99458.00;;;6.92;100.00
47726;BME280;33483;48.294;16.388;2022-10-22T03:38:29;99461.72;;;7.00;100.00
47726;BME280;33483;48.294;16.388;2022-10-22T03:40:56;99467.22;;;7.00;100.00
47726;BME280;33483;48.294;16.388;2022-10-22T03:43:28;99469.47;;;7.01;100.00
47726;BME280;33483;48.294;16.388;2022-10-22T03:45:56;99483.00;;;6.99;100.00
47726;BME280;33483;48.294;16.388;2022-10-22T03:48:23;99471.78;;;6.92;100.00
47726;BME280;33483;48.294;16.388;2022-10-22T03:50:50;99457.00;;;6.83;100.00
47726;BME280;33483;48.294;16.388;2022-10-22T03:53:16;99446.47;;;6.76;100.00
47726;BME280;33483;48.294;16.388;2022-10-22T03:55:44;99445.75;;;6.70;100.00
47726;BME280;33483;48.294;16.388;2022-10-22T03:58:11;99452.50;;;6.69;100.00
47726;BME280;33483;48.294;16.388;2022-10-22T04:00:38;99458.53;;;6.68;100.00
47726;BME280;33483;48.294;16.388;2022-10-22T04:03:05;99463.56;;;6.58;100.00
47726;BME280;33483;48.294;16.388;2022-10-22T04:05:34;99455.81;;;6.51;100.00
47726;BME280;33483;48.294;16.388;2022-10-22T04:08:02;99448.28;;;6.46;100.00
47726;BME280;33483;48.294;16.388;2022-10-22T04:10:30;99456.81;;;6.37;100.00
47726;BME280;33483;48.294;16.388;2022-10-22T04:12:56;99458.78;;;6.31;100.00
47726;BME280;33483;48.294;16.388;2022-10-22T04:15:24;99469.06;;;6.25;100.00
47726;BME280;33483;48.294;16.388;2022-10-22T04:17:54;99487.31;;;6.23;100.00
47726;BME280;33483;48.294;16.388;2022-10-22T04:20:21;99488.56;;;6.22;100.00
47726;BME280;33483;48.294;16.388;2022-10-22T04:22:48;99486.06;;;6.24;100.00
47726;BME280;33483;48.294;16.388;2022-10-22T04:25:15;99478.06;;;6.31;100.00
47726;BME280;33483;48.294;16.388;2022-10-22T04:27:42;99477.59;;;6.33;100.00
47726;BME280;33483;48.294;16.388;2022-10-22T04:30:09;99470.56;;;6.37;100.00
47726;BME280;33483;48.294;16.388;2022-10-22T04:32:36;99468.81;;;6.45;100.00
47726;BME280;33483;48.294;16.388;2022-10-22T04:35:04;99461.06;;;6.55;100.00
47726;BME280;33483;48.294;16.388;2022-10-22T04:37:31;99459.53;;;6.59;100.00
47726;BME280;33483;48.294;16.388;2022-10-22T04:39:58;99457.53;;;6.71;100.00
47726;BME280;33483;48.294;16.388;2022-10-22T04:42:25;99462.78;;;6.74;100.00
47726;BME280;33483;48.294;16.388;2022-10-22T04:44:52;99469.53;;;6.79;100.00
47726;BME280;33483;48.294;16.388;2022-10-22T04:47:20;99472.53;;;6.87;100.00
47726;BME280;33483;48.294;16.388;2022-10-22T04:49:47;99466.25;;;6.92;100.00
47726;BME280;33483;48.294;16.388;2022-10-22T04:52:14;99470.25;;;6.96;100.00
47726;BME280;33483;48.294;16.388;2022-10-22T04:54:41;99470.47;;;7.04;100.00
47726;BME280;33483;48.294;16.388;2022-10-22T04:57:08;99465.22;;;7.06;100.00
47726;BME280;33483;48.294;16.388;2022-10-22T04:59:35;99467.19;;;7.16;100.00
47726;BME280;33483;48.294;16.388;2022-10-22T05:02:02;99469.44;;;7.18;100.00
47726;BME280;33483;48.294;16.388;2022-10-22T05:04:30;99467.19;;;7.22;100.00
47726;BME280;33483;48.294;16.388;2022-10-22T05:06:57;99473.16;;;7.26;100.00
47726;BME280;33483;48.294;16.388;2022-10-22T05:09:24;99473.66;;;7.30;100.00
47726;BME280;33483;48.294;16.388;2022-10-22T05:11:52;99471.88;;;7.32;100.00
47726;BME280;33483;48.294;16.388;2022-10-22T05:14:22;99468.41;;;7.32;100.00
47726;BME280;33483;48.294;16.388;2022-10-22T05:16:50;99474.88;;;7.34;100.00
47726;BME280;33483;48.294;16.388;2022-10-22T05:19:26;99473.63;;;7.41;100.00
47726;BME280;33483;48.294;16.388;2022-10-22T05:21:54;99472.34;;;7.42;100.00
47726;BME280;33483;48.294;16.388;2022-10-22T05:24:22;99482.38;;;7.45;100.00
47726;BME280;33483;48.294;16.388;2022-10-22T05:26:55;99483.38;;;7.47;100.00
47726;BME280;33483;48.294;16.388;2022-10-22T05:29:23;99475.34;;;7.49;100.00
47726;BME280;33483;48.294;16.388;2022-10-22T05:31:50;99478.38;;;7.46;100.00
47726;BME280;33483;48.294;16.388;2022-10-22T05:34:18;99484.16;;;7.42;100.00
47726;BME280;33483;48.294;16.388;2022-10-22T05:36:48;99493.66;;;7.41;100.00
47726;BME280;33483;48.294;16.388;2022-10-22T05:39:15;99509.22;;;7.39;100.00
47726;BME280;33483;48.294;16.388;2022-10-22T05:41:42;99515.72;;;7.41;100.00
47726;BME280;33483;48.294;16.388;2022-10-22T05:44:11;99515.44;;;7.45;100.00
47726;BME280;33483;48.294;16.388;2022-10-22T05:46:38;99518.19;;;7.50;100.00
47726;BME280;33483;48.294;16.388;2022-10-22T05:49:06;99532.72;;;7.56;100.00
47726;BME280;33483;48.294;16.388;2022-10-22T05:51:35;99528.94;;;7.65;100.00
47726;BME280;33483;48.294;16.388;2022-10-22T05:54:05;99510.34;;;7.71;100.00
47726;BME280;33483;48.294;16.388;2022-10-22T05:56:37;99506.78;;;7.76;100.00
47726;BME280;33483;48.294;16.388;2022-10-22T05:59:04;99505.72;;;7.90;100.00
47726;BME280;33483;48.294;16.388;2022-10-22T06:01:33;99501.69;;;7.96;100.00
47726;BME280;33483;48.294;16.388;2022-10-22T06:04:03;99492.34;;;8.05;100.00
47726;BME280;33483;48.294;16.388;2022-10-22T06:06:36;99504.81;;;8.17;100.00
47726;BME280;33483;48.294;16.388;2022-10-22T06:11:40;99522.84;;;8.29;100.00
47726;BME280;33483;48.294;16.388;2022-10-22T06:14:08;99533.34;;;8.36;100.00
47726;BME280;33483;48.294;16.388;2022-10-22T06:16:36;99537.03;;;8.44;100.00
47726;BME280;33483;48.294;16.388;2022-10-22T06:19:03;99529.91;;;8.54;100.00
47726;BME280;33483;48.294;16.388;2022-10-22T06:21:31;99539.94;;;8.63;100.00
47726;BME280;33483;48.294;16.388;2022-10-22T06:24:00;99544.75;;;8.86;100.00
47726;BME280;33483;48.294;16.388;2022-10-22T06:26:28;99546.72;;;9.16;100.00
47726;BME280;33483;48.294;16.388;2022-10-22T06:28:56;99541.84;;;9.27;100.00
47726;BME280;33483;48.294;16.388;2022-10-22T06:31:25;99545.19;;;9.44;100.00
47726;BME280;33483;48.294;16.388;2022-10-22T06:33:53;99547.28;;;9.81;100.00
47726;BME280;33483;48.294;16.388;2022-10-22T06:36:22;99560.59;;;10.01;100.00
47726;BME280;33483;48.294;16.388;2022-10-22T06:38:53;99576.91;;;10.29;100.00
47726;BME280;33483;48.294;16.388;2022-10-22T06:41:21;99570.53;;;10.65;100.00
47726;BME280;33483;48.294;16.388;2022-10-22T06:43:55;99565.97;;;11.12;100.00
47726;BME280;33483;48.294;16.388;2022-10-22T06:46:23;99575.72;;;12.23;100.00
47726;BME280;33483;48.294;16.388;2022-10-22T06:48:53;99579.00;;;12.35;100.00
47726;BME280;33483;48.294;16.388;2022-10-22T06:51:22;99583.34;;;12.10;100.00
47726;BME280;33483;48.294;16.388;2022-10-22T06:53:49;99588.34;;;12.11;100.00
47726;BME280;33483;48.294;16.388;2022-10-22T06:56:19;99590.91;;;12.56;100.00
47726;BME280;33483;48.294;16.388;2022-10-22T06:58:49;99596.47;;;12.43;100.00
47726;BME280;33483;48.294;16.388;2022-10-22T07:01:19;99606.00;;;12.48;100.00
47726;BME280;33483;48.294;16.388;2022-10-22T07:03:49;99625.84;;;12.18;100.00
47726;BME280;33483;48.294;16.388;2022-10-22T07:06:18;99628.41;;;12.16;100.00
47726;BME280;33483;48.294;16.388;2022-10-22T07:08:45;99608.03;;;12.00;100.00
47726;BME280;33483;48.294;16.388;2022-10-22T07:11:17;99613.25;;;11.91;100.00
47726;BME280;33483;48.294;16.388;2022-10-22T07:13:45;99621.72;;;11.85;100.00
47726;BME280;33483;48.294;16.388;2022-10-22T07:16:13;99641.44;;;11.95;100.00
47726;BME280;33483;48.294;16.388;2022-10-22T07:18:42;99649.88;;;12.15;100.00
47726;BME280;33483;48.294;16.388;2022-10-22T07:21:10;99656.72;;;12.14;100.00
47726;BME280;33483;48.294;16.388;2022-10-22T07:23:38;99672.09;;;12.15;100.00
47726;BME280;33483;48.294;16.388;2022-10-22T07:26:06;99669.44;;;11.97;100.00
47726;BME280;33483;48.294;16.388;2022-10-22T07:28:36;99677.78;;;11.97;100.00
47726;BME280;33483;48.294;16.388;2022-10-22T07:31:09;99690.38;;;11.85;100.00
47726;BME280;33483;48.294;16.388;2022-10-22T07:33:37;99694.72;;;11.67;100.00
47726;BME280;33483;48.294;16.388;2022-10-22T07:36:07;99688.16;;;11.52;100.00
47726;BME280;33483;48.294;16.388;2022-10-22T07:38:37;99687.94;;;11.50;100.00
47726;BME280;33483;48.294;16.388;2022-10-22T07:41:04;99688.59;;;11.56;100.00
47726;BME280;33483;48.294;16.388;2022-10-22T07:43:31;99682.88;;;11.67;100.00
47726;BME280;33483;48.294;16.388;2022-10-22T07:46:01;99684.78;;;11.72;100.00
47726;BME280;33483;48.294;16.388;2022-10-22T07:48:28;99697.94;;;11.84;100.00
47726;BME280;33483;48.294;16.388;2022-10-22T07:50:55;99691.47;;;12.08;100.00
47726;BME280;33483;48.294;16.388;2022-10-22T07:53:24;99708.44;;;12.17;100.00
47726;BME280;33483;48.294;16.388;2022-10-22T07:55:51;99715.50;;;12.18;100.00
47726;BME280;33483;48.294;16.388;2022-10-22T07:58:20;99710.59;;;12.11;100.00
47726;BME280;33483;48.294;16.388;2022-10-22T08:00:48;99706.31;;;11.97;100.00
47726;BME280;33483;48.294;16.388;2022-10-22T08:03:16;99710.25;;;11.89;100.00
47726;BME280;33483;48.294;16.388;2022-10-22T08:05:44;99718.38;;;11.87;100.00
47726;BME280;33483;48.294;16.388;2022-10-22T08:08:13;99713.53;;;11.74;100.00
47726;BME280;33483;48.294;16.388;2022-10-22T08:10:43;99706.81;;;11.83;100.00
47726;BME280;33483;48.294;16.388;2022-10-22T08:13:12;99696.47;;;11.83;100.00
47726;BME280;33483;48.294;16.388;2022-10-22T08:15:42;99692.41;;;11.84;100.00
47726;BME280;33483;48.294;16.388;2022-10-22T08:18:12;99703.41;;;11.77;100.00
47726;BME280;33483;48.294;16.388;2022-10-22T08:20:42;99684.59;;;11.83;100.00
47726;BME280;33483;48.294;16.388;2022-10-22T08:23:09;99690.34;;;11.72;100.00
47726;BME280;33483;48.294;16.388;2022-10-22T08:25:36;99693.53;;;11.63;100.00
47726;BME280;33483;48.294;16.388;2022-10-22T08:28:05;99692.88;;;11.57;100.00
47726;BME280;33483;48.294;16.388;2022-10-22T08:30:35;99696.16;;;11.55;100.00
47726;BME280;33483;48.294;16.388;2022-10-22T08:33:04;99699.56;;;11.48;100.00
47726;BME280;33483;48.294;16.388;2022-10-22T08:35:31;99693.03;;;11.32;100.00
47726;BME280;33483;48.294;16.388;2022-10-22T08:37:59;99690.56;;;11.29;100.00
47726;BME280;33483;48.294;16.388;2022-10-22T08:40:32;99687.41;;;11.19;100.00
47726;BME280;33483;48.294;16.388;2022-10-22T08:48:47;99687.22;;;10.99;100.00
47726;BME280;33483;48.294;16.388;2022-10-22T08:51:18;99682.59;;;10.88;100.00
47726;BME280;33483;48.294;16.388;2022-10-22T09:02:49;99681.03;;;10.74;100.00
47726;BME280;33483;48.294;16.388;2022-10-22T09:07:49;99690.41;;;10.71;100.00
47726;BME280;33483;48.294;16.388;2022-10-22T09:10:18;99690.03;;;10.80;100.00
47726;BME280;33483;48.294;16.388;2022-10-22T09:12:47;99681.94;;;10.82;100.00
47726;BME280;33483;48.294;16.388;2022-10-22T09:15:16;99678.94;;;10.80;100.00
47726;BME280;33483;48.294;16.388;2022-10-22T09:23:27;99661.78;;;10.82;100.00
47726;BME280;33483;48.294;16.388;2022-10-22T09:25:59;99669.56;;;10.83;100.00
47726;BME280;33483;48.294;16.388;2022-10-22T09:28:26;99668.69;;;10.75;100.00
47726;BME280;33483;48.294;16.388;2022-10-22T09:30:54;99668.69;;;10.75;100.00
47726;BME280;33483;48.294;16.388;2022-10-22T09:33:27;99670.63;;;10.80;100.00
47726;BME280;33483;48.294;16.388;2022-10-22T09:35:55;99662.47;;;10.88;100.00
47726;BME280;33483;48.294;16.388;2022-10-22T09:38:32;99672.25;;;10.89;100.00
47726;BME280;33483;48.294;16.388;2022-10-22T09:41:00;99669.94;;;10.93;100.00
47726;BME280;33483;48.294;16.388;2022-10-22T09:43:30;99670.97;;;10.90;100.00
47726;BME280;33483;48.294;16.388;2022-10-22T09:46:05;99667.16;;;10.93;100.00
47726;BME280;33483;48.294;16.388;2022-10-22T09:48:35;99672.09;;;11.00;100.00
47726;BME280;33483;48.294;16.388;2022-10-22T09:53:57;99669.97;;;11.06;100.00
47726;BME280;33483;48.294;16.388;2022-10-22T09:56:35;99683.19;;;11.00;100.00
47726;BME280;33483;48.294;16.388;2022-10-22T09:59:02;99696.00;;;11.03;100.00
47726;BME280;33483;48.294;16.388;2022-10-22T10:01:31;99698.16;;;11.10;100.00
47726;BME280;33483;48.294;16.388;2022-10-22T10:04:03;99691.78;;;11.15;100.00
47726;BME280;33483;48.294;16.388;2022-10-22T10:06:37;99693.19;;;11.21;100.00
47726;BME280;33483;48.294;16.388;2022-10-22T10:09:15;99692.78;;;11.30;100.00
47726;BME280;33483;48.294;16.388;2022-10-22T10:11:56;99693.47;;;11.37;100.00
47726;BME280;33483;48.294;16.388;2022-10-22T10:15:26;99699.25;;;11.52;100.00
47726;BME280;33483;48.294;16.388;2022-10-22T10:37:35;99703.22;;;11.56;100.00
47726;BME280;33483;48.294;16.388;2022-10-22T10:40:18;99702.03;;;11.52;100.00
47726;BME280;33483;48.294;16.388;2022-10-22T10:54:24;99704.38;;;11.48;100.00
47726;BME280;33483;48.294;16.388;2022-10-22T10:56:59;99694.97;;;11.51;100.00
47726;BME280;33483;48.294;16.388;2022-10-22T11:05:41;99696.66;;;11.72;100.00
47726;BME280;33483;48.294;16.388;2022-10-22T11:08:19;99695.72;;;11.83;100.00
47726;BME280;33483;48.294;16.388;2022-10-22T11:13:56;99671.91;;;12.00;100.00
47726;BME280;33483;48.294;16.388;2022-10-22T11:16:41;99677.34;;;11.93;100.00
47726;BME280;33483;48.294;16.388;2022-10-22T11:22:18;99679.91;;;12.17;100.00
47726;BME280;33483;48.294;16.388;2022-10-22T11:25:23;99669.44;;;11.84;100.00
47726;BME280;33483;48.294;16.388;2022-10-22T11:27:59;99669.97;;;12.08;100.00
47726;BME280;33483;48.294;16.388;2022-10-22T11:30:37;99664.09;;;12.25;100.00
47726;BME280;33483;48.294;16.388;2022-10-22T11:33:14;99655.72;;;12.38;100.00
47726;BME280;33483;48.294;16.388;2022-10-22T11:35:44;99650.69;;;12.50;100.00
47726;BME280;33483;48.294;16.388;2022-10-22T11:38:17;99655.94;;;12.53;100.00
47726;BME280;33483;48.294;16.388;2022-10-22T11:40:51;99656.59;;;12.46;100.00
47726;BME280;33483;48.294;16.388;2022-10-22T11:47:07;99665.41;;;12.58;100.00
47726;BME280;33483;48.294;16.388;2022-10-22T11:49:27;99682.44;;;12.54;100.00
47726;BME280;33483;48.294;16.388;2022-10-22T11:54:57;99675.19;;;12.38;100.00
47726;BME280;33483;48.294;16.388;2022-10-22T11:57:37;99667.50;;;12.44;100.00
47726;BME280;33483;48.294;16.388;2022-10-22T12:00:33;99672.19;;;12.49;100.00
47726;BME280;33483;48.294;16.388;2022-10-22T12:03:03;99680.94;;;12.40;100.00
47726;BME280;33483;48.294;16.388;2022-10-22T12:05:35;99672.06;;;12.41;100.00
47726;BME280;33483;48.294;16.388;2022-10-22T12:08:19;99674.31;;;12.43;100.00
47726;BME280;33483;48.294;16.388;2022-10-22T12:11:02;99670.25;;;12.44;100.00
47726;BME280;33483;48.294;16.388;2022-10-22T12:16:42;99663.13;;;12.35;100.00
47726;BME280;33483;48.294;16.388;2022-10-22T12:21:58;99670.81;;;12.29;100.00
47726;BME280;33483;48.294;16.388;2022-10-22T12:24:33;99658.53;;;12.25;100.00
47726;BME280;33483;48.294;16.388;2022-10-22T12:27:01;99665.25;;;12.29;100.00
47726;BME280;33483;48.294;16.388;2022-10-22T12:29:35;99654.34;;;12.31;100.00
47726;BME280;33483;48.294;16.388;2022-10-22T12:32:03;99658.31;;;12.36;100.00
47726;BME280;33483;48.294;16.388;2022-10-22T12:34:33;99659.03;;;12.36;100.00
47726;BME280;33483;48.294;16.388;2022-10-22T12:37:03;99665.97;;;12.43;100.00
47726;BME280;33483;48.294;16.388;2022-10-22T12:39:30;99662.53;;;12.50;100.00
47726;BME280;33483;48.294;16.388;2022-10-22T12:42:04;99665.75;;;12.54;100.00
47726;BME280;33483;48.294;16.388;2022-10-22T12:44:32;99658.91;;;12.55;100.00
47726;BME280;33483;48.294;16.388;2022-10-22T12:46:59;99649.50;;;12.58;100.00
47726;BME280;33483;48.294;16.388;2022-10-22T12:49:47;99646.94;;;12.60;100.00
47726;BME280;33483;48.294;16.388;2022-10-22T12:52:19;99647.25;;;12.57;100.00
47726;BME280;33483;48.294;16.388;2022-10-22T12:54:49;99646.94;;;12.60;100.00
47726;BME280;33483;48.294;16.388;2022-10-22T12:57:21;99646.84;;;12.53;100.00
47726;BME280;33483;48.294;16.388;2022-10-22T12:59:50;99653.81;;;12.46;100.00
47726;BME280;33483;48.294;16.388;2022-10-22T13:02:23;99665.97;;;12.43;100.00
47726;BME280;33483;48.294;16.388;2022-10-22T13:05:29;99661.50;;;12.40;100.00
47726;BME280;33483;48.294;16.388;2022-10-22T13:08:09;99664.06;;;12.38;100.00
47726;BME280;33483;48.294;16.388;2022-10-22T13:10:39;99656.38;;;12.31;100.00
47726;BME280;33483;48.294;16.388;2022-10-22T13:13:32;99654.78;;;12.22;100.00
47726;BME280;33483;48.294;16.388;2022-10-22T13:16:23;99658.09;;;12.21;100.00
47726;BME280;33483;48.294;16.388;2022-10-22T13:18:52;99657.16;;;12.18;100.00
47726;BME280;33483;48.294;16.388;2022-10-22T13:21:33;99657.88;;;12.19;100.00
47726;BME280;33483;48.294;16.388;2022-10-22T13:24:02;99650.84;;;12.18;100.00
47726;BME280;33483;48.294;16.388;2022-10-22T13:26:35;99651.72;;;12.13;100.00
47726;BME280;33483;48.294;16.388;2022-10-22T13:29:09;99651.16;;;12.14;100.00
47726;BME280;33483;48.294;16.388;2022-10-22T13:31:44;99641.69;;;12.10;100.00
47726;BME280;33483;48.294;16.388;2022-10-22T13:34:16;99648.72;;;12.11;100.00
47726;BME280;33483;48.294;16.388;2022-10-22T13:36:44;99647.97;;;12.10;100.00
47726;BME280;33483;48.294;16.388;2022-10-22T13:39:15;99653.53;;;12.10;100.00
47726;BME280;33483;48.294;16.388;2022-10-22T13:41:44;99657.69;;;12.04;100.00
47726;BME280;33483;48.294;16.388;2022-10-22T13:44:11;99657.06;;;12.11;100.00
47726;BME280;33483;48.294;16.388;2022-10-22T13:46:41;99656.63;;;12.07;100.00
47726;BME280;33483;48.294;16.388;2022-10-22T13:49:17;99653.84;;;12.07;100.00
47726;BME280;33483;48.294;16.388;2022-10-22T13:51:46;99662.50;;;12.03;100.00
47726;BME280;33483;48.294;16.388;2022-10-22T13:54:18;99663.03;;;12.02;100.00
47726;BME280;33483;48.294;16.388;2022-10-22T13:56:48;99665.81;;;12.02;100.00
47726;BME280;33483;48.294;16.388;2022-10-22T13:59:16;99656.22;;;12.03;100.00
47726;BME280;33483;48.294;16.388;2022-10-22T14:01:48;99660.25;;;12.02;100.00
47726;BME280;33483;48.294;16.388;2022-10-22T14:04:18;99661.56;;;12.01;100.00
47726;BME280;33483;48.294;16.388;2022-10-22T14:06:45;99668.06;;;12.03;100.00
47726;BME280;33483;48.294;16.388;2022-10-22T14:09:14;99668.06;;;12.03;100.00
47726;BME280;33483;48.294;16.388;2022-10-22T14:11:42;99666.34;;;12.00;100.00
47726;BME280;33483;48.294;16.388;2022-10-22T14:14:11;99665.38;;;11.98;100.00
47726;BME280;33483;48.294;16.388;2022-10-22T14:16:43;99664.66;;;11.97;100.00
47726;BME280;33483;48.294;16.388;2022-10-22T14:19:14;99672.75;;;11.95;100.00
47726;BME280;33483;48.294;16.388;2022-10-22T14:21:42;99659.19;;;11.92;100.00
47726;BME280;33483;48.294;16.388;2022-10-22T14:24:09;99655.03;;;11.85;100.00
47726;BME280;33483;48.294;16.388;2022-10-22T14:26:44;99661.53;;;11.88;100.00
47726;BME280;33483;48.294;16.388;2022-10-22T14:29:11;99658.31;;;11.84;100.00
47726;BME280;33483;48.294;16.388;2022-10-22T14:31:40;99659.16;;;11.79;100.00
47726;BME280;33483;48.294;16.388;2022-10-22T14:34:12;99655.34;;;11.82;100.00
47726;BME280;33483;48.294;16.388;2022-10-22T14:36:41;99654.91;;;11.78;100.00
47726;BME280;33483;48.294;16.388;2022-10-22T14:39:11;99656.00;;;11.75;100.00
47726;BME280;33483;48.294;16.388;2022-10-22T14:41:39;99668.88;;;11.72;100.00
47726;BME280;33483;48.294;16.388;2022-10-22T14:44:10;99670.19;;;11.71;100.00
47726;BME280;33483;48.294;16.388;2022-10-22T14:46:39;99663.13;;;11.70;100.00
47726;BME280;33483;48.294;16.388;2022-10-22T14:49:13;99667.19;;;11.69;100.00